sensor_id;sensor_type;location;lat;lon;timestamp;P1;durP1;ratioP1;P2;durP2;ratioP2
80334;SDS011;69653;52.674;13.574;2023-04-25T00:00:13;7.43;;;3.07;;
80334;SDS011;69653;52.674;13.574;2023-04-25T00:02:39;6.80;;;3.15;;
80334;SDS011;69653;52.674;13.574;2023-04-25T00:05:04;5.57;;;2.88;;
80334;SDS011;69653;52.674;13.574;2023-04-25T00:07:30;6.53;;;3.08;;
80334;SDS011;69653;52.674;13.574;2023-04-25T00:09:57;5.60;;;2.90;;
80334;SDS011;69653;52.674;13.574;2023-04-25T00:12:22;5.00;;;2.78;;
80334;SDS011;69653;52.674;13.574;2023-04-25T00:14:48;6.60;;;2.50;;
80334;SDS011;69653;52.674;13.574;2023-04-25T00:17:14;7.15;;;2.50;;
80334;SDS011;69653;52.674;13.574;2023-04-25T00:19:41;7.57;;;3.00;;
80334;SDS011;69653;52.674;13.574;2023-04-25T00:22:06;4.53;;;2.33;;
80334;SDS011;69653;52.674;13.574;2023-04-25T00:24:32;7.53;;;3.03;;
80334;SDS011;69653;52.674;13.574;2023-04-25T00:26:58;6.70;;;2.50;;
80334;SDS011;69653;52.674;13.574;2023-04-25T00:29:23;4.77;;;2.20;;
80334;SDS011;69653;52.674;13.574;2023-04-25T00:31:48;4.90;;;2.27;;
80334;SDS011;69653;52.674;13.574;2023-04-25T00:34:14;5.67;;;2.30;;
80334;SDS011;69653;52.674;13.574;2023-04-25T00:36:39;5.57;;;2.40;;
80334;SDS011;69653;52.674;13.574;2023-04-25T00:39:04;6.83;;;2.60;;
80334;SDS011;69653;52.674;13.574;2023-04-25T00:41:30;7.40;;;2.23;;
80334;SDS011;69653;52.674;13.574;2023-04-25T00:43:55;6.60;;;2.38;;
80334;SDS011;69653;52.674;13.574;2023-04-25T00:46:21;4.80;;;2.28;;
80334;SDS011;69653;52.674;13.574;2023-04-25T00:48:47;3.60;;;1.60;;
80334;SDS011;69653;52.674;13.574;2023-04-25T00:51:13;5.17;;;1.93;;
80334;SDS011;69653;52.674;13.574;2023-04-25T00:53:44;6.07;;;2.28;;
80334;SDS011;69653;52.674;13.574;2023-04-25T00:56:10;5.63;;;1.95;;
80334;SDS011;69653;52.674;13.574;2023-04-25T00:58:35;5.23;;;2.30;;
80334;SDS011;69653;52.674;13.574;2023-04-25T01:01:02;5.78;;;2.33;;
80334;SDS011;69653;52.674;13.574;2023-04-25T01:03:27;5.10;;;1.87;;
80334;SDS011;69653;52.674;13.574;2023-04-25T01:05:53;5.65;;;2.35;;
80334;SDS011;69653;52.674;13.574;2023-04-25T01:08:19;6.88;;;2.05;;
80334;SDS011;69653;52.674;13.574;2023-04-25T01:10:48;6.88;;;2.72;;
80334;SDS011;69653;52.674;13.574;2023-04-25T01:13:13;6.23;;;2.57;;
80334;SDS011;69653;52.674;13.574;2023-04-25T01:15:39;4.65;;;2.50;;
80334;SDS011;69653;52.674;13.574;2023-04-25T01:18:05;7.72;;;2.35;;
80334;SDS011;69653;52.674;13.574;2023-04-25T01:20:32;5.55;;;2.33;;
80334;SDS011;69653;52.674;13.574;2023-04-25T01:22:58;8.13;;;2.60;;
80334;SDS011;69653;52.674;13.574;2023-04-25T01:25:24;7.65;;;2.65;;
80334;SDS011;69653;52.674;13.574;2023-04-25T01:27:49;8.05;;;3.10;;
80334;SDS011;69653;52.674;13.574;2023-04-25T01:30:15;6.15;;;2.58;;
80334;SDS011;69653;52.674;13.574;2023-04-25T01:32:41;8.77;;;2.63;;
80334;SDS011;69653;52.674;13.574;2023-04-25T01:35:08;4.45;;;2.38;;
80334;SDS011;69653;52.674;13.574;2023-04-25T01:37:36;7.40;;;2.35;;
80334;SDS011;69653;52.674;13.574;2023-04-25T01:40:05;6.03;;;2.70;;
80334;SDS011;69653;52.674;13.574;2023-04-25T01:42:32;6.05;;;2.22;;
80334;SDS011;69653;52.674;13.574;2023-04-25T01:44:59;6.13;;;2.40;;
80334;SDS011;69653;52.674;13.574;2023-04-25T01:47:24;5.80;;;2.40;;
80334;SDS011;69653;52.674;13.574;2023-04-25T01:49:50;7.65;;;2.47;;
80334;SDS011;69653;52.674;13.574;2023-04-25T01:52:15;6.85;;;2.63;;
80334;SDS011;69653;52.674;13.574;2023-04-25T01:54:41;7.37;;;2.50;;
80334;SDS011;69653;52.674;13.574;2023-04-25T01:57:09;6.50;;;2.40;;
80334;SDS011;69653;52.674;13.574;2023-04-25T01:59:35;8.52;;;2.75;;
80334;SDS011;69653;52.674;13.574;2023-04-25T02:02:00;7.80;;;2.92;;
80334;SDS011;69653;52.674;13.574;2023-04-25T02:04:28;6.07;;;2.47;;
80334;SDS011;69653;52.674;13.574;2023-04-25T02:06:54;4.15;;;2.00;;
80334;SDS011;69653;52.674;13.574;2023-04-25T02:09:19;7.63;;;2.47;;
80334;SDS011;69653;52.674;13.574;2023-04-25T02:11:45;5.90;;;2.60;;
80334;SDS011;69653;52.674;13.574;2023-04-25T02:14:10;4.90;;;2.03;;
80334;SDS011;69653;52.674;13.574;2023-04-25T02:16:35;4.87;;;2.00;;
80334;SDS011;69653;52.674;13.574;2023-04-25T02:19:01;7.50;;;2.77;;
80334;SDS011;69653;52.674;13.574;2023-04-25T02:21:26;5.28;;;2.67;;
80334;SDS011;69653;52.674;13.574;2023-04-25T02:23:52;7.43;;;2.37;;
80334;SDS011;69653;52.674;13.574;2023-04-25T02:26:17;6.15;;;2.72;;
80334;SDS011;69653;52.674;13.574;2023-04-25T02:28:42;7.57;;;2.60;;
80334;SDS011;69653;52.674;13.574;2023-04-25T02:31:08;7.10;;;2.57;;
80334;SDS011;69653;52.674;13.574;2023-04-25T02:33:33;7.13;;;2.67;;
80334;SDS011;69653;52.674;13.574;2023-04-25T02:35:59;8.82;;;2.72;;
80334;SDS011;69653;52.674;13.574;2023-04-25T02:38:24;7.20;;;2.63;;
80334;SDS011;69653;52.674;13.574;2023-04-25T02:40:50;10.63;;;3.35;;
80334;SDS011;69653;52.674;13.574;2023-04-25T02:43:15;5.37;;;2.53;;
80334;SDS011;69653;52.674;13.574;2023-04-25T02:45:41;7.85;;;3.20;;
80334;SDS011;69653;52.674;13.574;2023-04-25T02:48:06;8.55;;;2.80;;
80334;SDS011;69653;52.674;13.574;2023-04-25T02:50:31;6.67;;;2.73;;
80334;SDS011;69653;52.674;13.574;2023-04-25T02:52:57;6.53;;;3.03;;
80334;SDS011;69653;52.674;13.574;2023-04-25T02:55:22;8.43;;;2.97;;
80334;SDS011;69653;52.674;13.574;2023-04-25T02:57:47;6.72;;;2.90;;
80334;SDS011;69653;52.674;13.574;2023-04-25T03:00:13;8.13;;;2.53;;
80334;SDS011;69653;52.674;13.574;2023-04-25T03:02:39;6.22;;;2.70;;
80334;SDS011;69653;52.674;13.574;2023-04-25T03:05:05;9.60;;;3.65;;
80334;SDS011;69653;52.674;13.574;2023-04-25T03:07:30;6.13;;;2.60;;
80334;SDS011;69653;52.674;13.574;2023-04-25T03:09:56;10.20;;;3.13;;
80334;SDS011;69653;52.674;13.574;2023-04-25T03:12:21;8.27;;;3.13;;
80334;SDS011;69653;52.674;13.574;2023-04-25T03:14:47;5.72;;;3.08;;
80334;SDS011;69653;52.674;13.574;2023-04-25T03:17:12;7.93;;;2.53;;
80334;SDS011;69653;52.674;13.574;2023-04-25T03:19:37;10.10;;;3.63;;
80334;SDS011;69653;52.674;13.574;2023-04-25T03:22:03;9.40;;;3.07;;
80334;SDS011;69653;52.674;13.574;2023-04-25T03:24:28;5.40;;;2.77;;
80334;SDS011;69653;52.674;13.574;2023-04-25T03:26:53;6.43;;;3.00;;
80334;SDS011;69653;52.674;13.574;2023-04-25T03:29:19;8.18;;;3.00;;
80334;SDS011;69653;52.674;13.574;2023-04-25T03:31:49;9.05;;;2.83;;
80334;SDS011;69653;52.674;13.574;2023-04-25T03:34:14;8.15;;;3.13;;
80334;SDS011;69653;52.674;13.574;2023-04-25T03:36:40;8.65;;;3.33;;
80334;SDS011;69653;52.674;13.574;2023-04-25T03:39:05;9.73;;;4.13;;
80334;SDS011;69653;52.674;13.574;2023-04-25T03:41:31;9.25;;;3.88;;
80334;SDS011;69653;52.674;13.574;2023-04-25T03:43:56;8.15;;;3.53;;
80334;SDS011;69653;52.674;13.574;2023-04-25T03:46:21;8.53;;;3.47;;
80334;SDS011;69653;52.674;13.574;2023-04-25T03:48:47;8.23;;;3.93;;
80334;SDS011;69653;52.674;13.574;2023-04-25T03:51:12;8.35;;;3.50;;
80334;SDS011;69653;52.674;13.574;2023-04-25T03:53:37;6.30;;;3.03;;
80334;SDS011;69653;52.674;13.574;2023-04-25T03:56:03;6.23;;;3.13;;
80334;SDS011;69653;52.674;13.574;2023-04-25T03:58:28;7.43;;;3.35;;
80334;SDS011;69653;52.674;13.574;2023-04-25T04:00:54;7.47;;;3.47;;
80334;SDS011;69653;52.674;13.574;2023-04-25T04:03:19;8.27;;;3.33;;
80334;SDS011;69653;52.674;13.574;2023-04-25T04:05:45;7.47;;;3.30;;
80334;SDS011;69653;52.674;13.574;2023-04-25T04:08:11;10.77;;;3.72;;
80334;SDS011;69653;52.674;13.574;2023-04-25T04:10:36;7.95;;;3.00;;
80334;SDS011;69653;52.674;13.574;2023-04-25T04:13:02;6.20;;;2.97;;
80334;SDS011;69653;52.674;13.574;2023-04-25T04:15:27;7.88;;;3.47;;
80334;SDS011;69653;52.674;13.574;2023-04-25T04:17:53;7.80;;;3.50;;
80334;SDS011;69653;52.674;13.574;2023-04-25T04:20:19;8.05;;;3.10;;
80334;SDS011;69653;52.674;13.574;2023-04-25T04:22:44;7.40;;;3.28;;
80334;SDS011;69653;52.674;13.574;2023-04-25T04:25:09;6.97;;;3.33;;
80334;SDS011;69653;52.674;13.574;2023-04-25T04:27:36;5.47;;;2.83;;
80334;SDS011;69653;52.674;13.574;2023-04-25T04:30:02;8.25;;;3.25;;
80334;SDS011;69653;52.674;13.574;2023-04-25T04:32:28;8.90;;;3.83;;
80334;SDS011;69653;52.674;13.574;2023-04-25T04:34:55;10.40;;;3.60;;
80334;SDS011;69653;52.674;13.574;2023-04-25T04:37:20;7.70;;;3.17;;
80334;SDS011;69653;52.674;13.574;2023-04-25T04:39:46;6.65;;;3.22;;
80334;SDS011;69653;52.674;13.574;2023-04-25T04:42:12;6.45;;;3.00;;
80334;SDS011;69653;52.674;13.574;2023-04-25T04:44:38;7.47;;;2.95;;
80334;SDS011;69653;52.674;13.574;2023-04-25T04:47:04;5.22;;;3.05;;
80334;SDS011;69653;52.674;13.574;2023-04-25T04:49:31;7.13;;;3.20;;
80334;SDS011;69653;52.674;13.574;2023-04-25T04:51:57;8.30;;;3.75;;
80334;SDS011;69653;52.674;13.574;2023-04-25T04:54:22;10.73;;;3.83;;
80334;SDS011;69653;52.674;13.574;2023-04-25T04:56:47;7.10;;;3.40;;
80334;SDS011;69653;52.674;13.574;2023-04-25T04:59:13;6.77;;;2.97;;
80334;SDS011;69653;52.674;13.574;2023-04-25T05:01:38;6.87;;;3.30;;
80334;SDS011;69653;52.674;13.574;2023-04-25T05:04:03;10.87;;;3.47;;
80334;SDS011;69653;52.674;13.574;2023-04-25T05:06:29;9.35;;;3.17;;
80334;SDS011;69653;52.674;13.574;2023-04-25T05:08:56;7.18;;;2.92;;
80334;SDS011;69653;52.674;13.574;2023-04-25T05:11:22;7.93;;;2.97;;
80334;SDS011;69653;52.674;13.574;2023-04-25T05:13:49;10.00;;;3.53;;
80334;SDS011;69653;52.674;13.574;2023-04-25T05:16:16;7.10;;;2.80;;
80334;SDS011;69653;52.674;13.574;2023-04-25T05:18:41;7.50;;;3.30;;
80334;SDS011;69653;52.674;13.574;2023-04-25T05:21:06;9.03;;;3.63;;
80334;SDS011;69653;52.674;13.574;2023-04-25T05:23:32;6.33;;;3.10;;
80334;SDS011;69653;52.674;13.574;2023-04-25T05:25:58;10.38;;;3.17;;
80334;SDS011;69653;52.674;13.574;2023-04-25T05:28:23;8.05;;;3.40;;
80334;SDS011;69653;52.674;13.574;2023-04-25T05:30:49;8.07;;;3.00;;
80334;SDS011;69653;52.674;13.574;2023-04-25T05:33:14;6.90;;;3.20;;
80334;SDS011;69653;52.674;13.574;2023-04-25T05:35:40;6.40;;;3.17;;
80334;SDS011;69653;52.674;13.574;2023-04-25T05:38:05;8.38;;;3.42;;
80334;SDS011;69653;52.674;13.574;2023-04-25T05:40:31;8.48;;;2.95;;
80334;SDS011;69653;52.674;13.574;2023-04-25T05:42:56;6.82;;;3.33;;
80334;SDS011;69653;52.674;13.574;2023-04-25T05:45:22;7.83;;;3.40;;
80334;SDS011;69653;52.674;13.574;2023-04-25T05:47:47;6.50;;;2.50;;
80334;SDS011;69653;52.674;13.574;2023-04-25T05:50:12;6.43;;;2.80;;
80334;SDS011;69653;52.674;13.574;2023-04-25T05:52:38;7.83;;;2.77;;
80334;SDS011;69653;52.674;13.574;2023-04-25T05:55:03;8.00;;;3.28;;
80334;SDS011;69653;52.674;13.574;2023-04-25T05:57:29;8.77;;;3.45;;
80334;SDS011;69653;52.674;13.574;2023-04-25T05:59:54;7.17;;;3.13;;
80334;SDS011;69653;52.674;13.574;2023-04-25T06:02:20;6.17;;;3.07;;
80334;SDS011;69653;52.674;13.574;2023-04-25T06:04:46;8.05;;;3.38;;
80334;SDS011;69653;52.674;13.574;2023-04-25T06:07:12;8.07;;;3.58;;
80334;SDS011;69653;52.674;13.574;2023-04-25T06:09:38;8.60;;;3.40;;
80334;SDS011;69653;52.674;13.574;2023-04-25T06:12:04;7.65;;;3.65;;
80334;SDS011;69653;52.674;13.574;2023-04-25T06:14:30;8.73;;;3.22;;
80334;SDS011;69653;52.674;13.574;2023-04-25T06:16:56;7.73;;;3.97;;
80334;SDS011;69653;52.674;13.574;2023-04-25T06:19:21;6.87;;;3.17;;
80334;SDS011;69653;52.674;13.574;2023-04-25T06:21:46;9.00;;;3.70;;
80334;SDS011;69653;52.674;13.574;2023-04-25T06:24:12;8.60;;;3.50;;
80334;SDS011;69653;52.674;13.574;2023-04-25T06:26:37;7.90;;;3.20;;
80334;SDS011;69653;52.674;13.574;2023-04-25T06:29:02;8.50;;;3.40;;
80334;SDS011;69653;52.674;13.574;2023-04-25T06:31:28;11.83;;;4.10;;
80334;SDS011;69653;52.674;13.574;2023-04-25T06:33:58;7.28;;;3.42;;
80334;SDS011;69653;52.674;13.574;2023-04-25T06:36:23;7.18;;;3.22;;
80334;SDS011;69653;52.674;13.574;2023-04-25T06:38:50;9.80;;;4.22;;
80334;SDS011;69653;52.674;13.574;2023-04-25T06:41:16;7.78;;;3.47;;
80334;SDS011;69653;52.674;13.574;2023-04-25T06:43:42;9.83;;;3.80;;
80334;SDS011;69653;52.674;13.574;2023-04-25T06:46:07;9.37;;;4.00;;
80334;SDS011;69653;52.674;13.574;2023-04-25T06:48:32;9.27;;;3.80;;
80334;SDS011;69653;52.674;13.574;2023-04-25T06:50:57;13.53;;;4.63;;
80334;SDS011;69653;52.674;13.574;2023-04-25T06:53:23;6.53;;;3.93;;
80334;SDS011;69653;52.674;13.574;2023-04-25T06:55:48;9.20;;;3.60;;
80334;SDS011;69653;52.674;13.574;2023-04-25T06:58:13;9.47;;;3.27;;
80334;SDS011;69653;52.674;13.574;2023-04-25T07:00:39;7.47;;;3.33;;
80334;SDS011;69653;52.674;13.574;2023-04-25T07:03:04;6.20;;;3.00;;
80334;SDS011;69653;52.674;13.574;2023-04-25T07:05:29;7.43;;;3.90;;
80334;SDS011;69653;52.674;13.574;2023-04-25T07:07:55;7.93;;;3.37;;
80334;SDS011;69653;52.674;13.574;2023-04-25T07:10:20;6.60;;;3.17;;
80334;SDS011;69653;52.674;13.574;2023-04-25T07:12:46;9.32;;;3.88;;
80334;SDS011;69653;52.674;13.574;2023-04-25T07:15:11;8.50;;;3.90;;
80334;SDS011;69653;52.674;13.574;2023-04-25T07:17:37;6.05;;;3.30;;
80334;SDS011;69653;52.674;13.574;2023-04-25T07:20:03;8.18;;;3.13;;
80334;SDS011;69653;52.674;13.574;2023-04-25T07:22:29;7.18;;;3.20;;
80334;SDS011;69653;52.674;13.574;2023-04-25T07:24:54;5.50;;;2.70;;
80334;SDS011;69653;52.674;13.574;2023-04-25T07:27:20;7.40;;;3.15;;
80334;SDS011;69653;52.674;13.574;2023-04-25T07:29:46;7.65;;;3.10;;
80334;SDS011;69653;52.674;13.574;2023-04-25T07:32:11;6.57;;;2.53;;
80334;SDS011;69653;52.674;13.574;2023-04-25T07:34:38;7.75;;;3.20;;
80334;SDS011;69653;52.674;13.574;2023-04-25T07:37:03;6.93;;;2.80;;
80334;SDS011;69653;52.674;13.574;2023-04-25T07:39:29;6.35;;;2.78;;
80334;SDS011;69653;52.674;13.574;2023-04-25T07:41:55;9.20;;;3.00;;
80334;SDS011;69653;52.674;13.574;2023-04-25T07:44:21;7.00;;;2.53;;
80334;SDS011;69653;52.674;13.574;2023-04-25T07:46:46;6.07;;;2.53;;
80334;SDS011;69653;52.674;13.574;2023-04-25T07:49:12;8.63;;;2.87;;
80334;SDS011;69653;52.674;13.574;2023-04-25T07:51:37;5.93;;;3.77;;
80334;SDS011;69653;52.674;13.574;2023-04-25T07:54:02;9.13;;;2.47;;
80334;SDS011;69653;52.674;13.574;2023-04-25T07:56:28;8.47;;;2.90;;
80334;SDS011;69653;52.674;13.574;2023-04-25T07:58:53;10.47;;;3.63;;
80334;SDS011;69653;52.674;13.574;2023-04-25T08:01:18;10.03;;;3.13;;
80334;SDS011;69653;52.674;13.574;2023-04-25T08:03:46;7.55;;;2.92;;
80334;SDS011;69653;52.674;13.574;2023-04-25T08:06:11;9.93;;;3.73;;
80334;SDS011;69653;52.674;13.574;2023-04-25T08:08:37;12.32;;;3.72;;
80334;SDS011;69653;52.674;13.574;2023-04-25T08:11:02;8.37;;;3.23;;
80334;SDS011;69653;52.674;13.574;2023-04-25T08:13:28;10.27;;;2.80;;
80334;SDS011;69653;52.674;13.574;2023-04-25T08:15:53;7.80;;;3.00;;
80334;SDS011;69653;52.674;13.574;2023-04-25T08:18:19;10.45;;;3.38;;
80334;SDS011;69653;52.674;13.574;2023-04-25T08:20:45;11.85;;;2.83;;
80334;SDS011;69653;52.674;13.574;2023-04-25T08:23:10;10.17;;;3.13;;
80334;SDS011;69653;52.674;13.574;2023-04-25T08:25:35;9.23;;;2.80;;
80334;SDS011;69653;52.674;13.574;2023-04-25T08:28:01;9.90;;;3.27;;
80334;SDS011;69653;52.674;13.574;2023-04-25T08:30:28;14.52;;;3.25;;
80334;SDS011;69653;52.674;13.574;2023-04-25T08:32:53;9.27;;;2.85;;
80334;SDS011;69653;52.674;13.574;2023-04-25T08:35:19;11.57;;;3.00;;
80334;SDS011;69653;52.674;13.574;2023-04-25T08:37:45;11.57;;;3.67;;
80334;SDS011;69653;52.674;13.574;2023-04-25T08:40:11;14.77;;;3.83;;
80334;SDS011;69653;52.674;13.574;2023-04-25T08:42:39;13.30;;;2.70;;
80334;SDS011;69653;52.674;13.574;2023-04-25T08:45:07;9.55;;;2.38;;
80334;SDS011;69653;52.674;13.574;2023-04-25T08:47:33;8.02;;;2.50;;
80334;SDS011;69653;52.674;13.574;2023-04-25T08:50:00;9.63;;;3.00;;
80334;SDS011;69653;52.674;13.574;2023-04-25T08:52:28;11.80;;;2.97;;
80334;SDS011;69653;52.674;13.574;2023-04-25T08:54:57;7.57;;;2.10;;
80334;SDS011;69653;52.674;13.574;2023-04-25T08:57:24;10.05;;;2.55;;
80334;SDS011;69653;52.674;13.574;2023-04-25T08:59:50;8.45;;;2.58;;
80334;SDS011;69653;52.674;13.574;2023-04-25T09:02:17;8.13;;;2.22;;
80334;SDS011;69653;52.674;13.574;2023-04-25T09:04:45;8.60;;;2.40;;
80334;SDS011;69653;52.674;13.574;2023-04-25T09:07:11;8.00;;;2.30;;
80334;SDS011;69653;52.674;13.574;2023-04-25T09:09:36;5.63;;;2.45;;
80334;SDS011;69653;52.674;13.574;2023-04-25T09:12:02;9.40;;;2.55;;
80334;SDS011;69653;52.674;13.574;2023-04-25T09:14:27;7.15;;;2.35;;
80334;SDS011;69653;52.674;13.574;2023-04-25T09:19:22;14.82;;;2.58;;
80334;SDS011;69653;52.674;13.574;2023-04-25T09:21:51;7.93;;;2.78;;
80334;SDS011;69653;52.674;13.574;2023-04-25T09:27:04;8.48;;;2.28;;
80334;SDS011;69653;52.674;13.574;2023-04-25T09:29:34;7.45;;;2.80;;
80334;SDS011;69653;52.674;13.574;2023-04-25T09:32:15;9.63;;;4.00;;
80334;SDS011;69653;52.674;13.574;2023-04-25T09:34:41;8.68;;;2.40;;
80334;SDS011;69653;52.674;13.574;2023-04-25T09:37:09;5.93;;;2.10;;
80334;SDS011;69653;52.674;13.574;2023-04-25T09:39:36;8.82;;;2.10;;
80334;SDS011;69653;52.674;13.574;2023-04-25T09:42:02;10.60;;;2.55;;
80334;SDS011;69653;52.674;13.574;2023-04-25T09:44:28;6.93;;;1.92;;
80334;SDS011;69653;52.674;13.574;2023-04-25T09:46:53;9.87;;;2.30;;
80334;SDS011;69653;52.674;13.574;2023-04-25T09:49:20;8.15;;;1.95;;
80334;SDS011;69653;52.674;13.574;2023-04-25T09:51:58;8.38;;;2.13;;
80334;SDS011;69653;52.674;13.574;2023-04-25T09:54:24;6.82;;;2.10;;
80334;SDS011;69653;52.674;13.574;2023-04-25T09:56:53;8.05;;;2.40;;
80334;SDS011;69653;52.674;13.574;2023-04-25T09:59:19;6.28;;;2.28;;
80334;SDS011;69653;52.674;13.574;2023-04-25T10:01:49;5.85;;;1.70;;
80334;SDS011;69653;52.674;13.574;2023-04-25T10:04:19;9.30;;;2.25;;
80334;SDS011;69653;52.674;13.574;2023-04-25T10:06:48;9.02;;;2.00;;
80334;SDS011;69653;52.674;13.574;2023-04-25T10:09:14;7.18;;;2.05;;
80334;SDS011;69653;52.674;13.574;2023-04-25T10:11:40;7.18;;;2.10;;
80334;SDS011;69653;52.674;13.574;2023-04-25T10:14:06;8.73;;;1.88;;
80334;SDS011;69653;52.674;13.574;2023-04-25T10:16:31;5.90;;;1.80;;
80334;SDS011;69653;52.674;13.574;2023-04-25T10:18:57;5.30;;;1.55;;
80334;SDS011;69653;52.674;13.574;2023-04-25T10:21:22;7.18;;;2.17;;
80334;SDS011;69653;52.674;13.574;2023-04-25T10:23:51;8.45;;;1.90;;
80334;SDS011;69653;52.674;13.574;2023-04-25T10:26:18;9.57;;;2.70;;
80334;SDS011;69653;52.674;13.574;2023-04-25T10:28:59;7.15;;;1.90;;
80334;SDS011;69653;52.674;13.574;2023-04-25T10:31:26;4.28;;;1.67;;
80334;SDS011;69653;52.674;13.574;2023-04-25T10:33:52;6.80;;;2.65;;
80334;SDS011;69653;52.674;13.574;2023-04-25T10:36:19;5.72;;;1.85;;
80334;SDS011;69653;52.674;13.574;2023-04-25T10:38:47;11.07;;;3.88;;
80334;SDS011;69653;52.674;13.574;2023-04-25T10:41:15;8.25;;;2.38;;
80334;SDS011;69653;52.674;13.574;2023-04-25T10:43:44;6.80;;;2.08;;
80334;SDS011;69653;52.674;13.574;2023-04-25T10:46:13;5.35;;;1.83;;
80334;SDS011;69653;52.674;13.574;2023-04-25T10:48:54;7.05;;;2.53;;
80334;SDS011;69653;52.674;13.574;2023-04-25T10:51:22;10.15;;;3.15;;
80334;SDS011;69653;52.674;13.574;2023-04-25T10:56:21;6.00;;;1.70;;
80334;SDS011;69653;52.674;13.574;2023-04-25T10:58:48;5.35;;;1.67;;
80334;SDS011;69653;52.674;13.574;2023-04-25T11:01:14;8.15;;;1.73;;
80334;SDS011;69653;52.674;13.574;2023-04-25T11:03:44;6.15;;;2.17;;
80334;SDS011;69653;52.674;13.574;2023-04-25T11:06:15;5.60;;;1.60;;
80334;SDS011;69653;52.674;13.574;2023-04-25T11:08:56;6.47;;;1.88;;
80334;SDS011;69653;52.674;13.574;2023-04-25T11:11:22;4.35;;;1.63;;
80334;SDS011;69653;52.674;13.574;2023-04-25T11:13:49;5.25;;;1.63;;
80334;SDS011;69653;52.674;13.574;2023-04-25T11:16:15;8.23;;;1.65;;
80334;SDS011;69653;52.674;13.574;2023-04-25T11:18:42;5.65;;;1.42;;
80334;SDS011;69653;52.674;13.574;2023-04-25T11:21:08;5.82;;;1.73;;
80334;SDS011;69653;52.674;13.574;2023-04-25T11:23:34;6.53;;;1.33;;
80334;SDS011;69653;52.674;13.574;2023-04-25T11:25:59;5.70;;;1.63;;
80334;SDS011;69653;52.674;13.574;2023-04-25T11:28:26;3.72;;;1.27;;
80334;SDS011;69653;52.674;13.574;2023-04-25T11:30:52;7.43;;;1.88;;
80334;SDS011;69653;52.674;13.574;2023-04-25T11:33:17;5.47;;;1.65;;
80334;SDS011;69653;52.674;13.574;2023-04-25T11:35:43;5.32;;;2.92;;
80334;SDS011;69653;52.674;13.574;2023-04-25T11:38:08;5.40;;;1.67;;
80334;SDS011;69653;52.674;13.574;2023-04-25T11:40:37;6.68;;;1.58;;
80334;SDS011;69653;52.674;13.574;2023-04-25T11:43:02;5.25;;;1.63;;
80334;SDS011;69653;52.674;13.574;2023-04-25T11:45:28;5.82;;;1.42;;
80334;SDS011;69653;52.674;13.574;2023-04-25T11:47:55;6.07;;;1.50;;
80334;SDS011;69653;52.674;13.574;2023-04-25T11:50:21;6.35;;;1.33;;
80334;SDS011;69653;52.674;13.574;2023-04-25T11:52:46;6.57;;;2.00;;
80334;SDS011;69653;52.674;13.574;2023-04-25T11:55:13;5.72;;;1.17;;
80334;SDS011;69653;52.674;13.574;2023-04-25T11:57:40;6.63;;;1.42;;
80334;SDS011;69653;52.674;13.574;2023-04-25T12:02:34;5.65;;;1.50;;
80334;SDS011;69653;52.674;13.574;2023-04-25T12:05:01;5.97;;;1.40;;
80334;SDS011;69653;52.674;13.574;2023-04-25T12:07:29;5.87;;;1.50;;
80334;SDS011;69653;52.674;13.574;2023-04-25T12:09:55;5.85;;;1.63;;
80334;SDS011;69653;52.674;13.574;2023-04-25T12:12:20;5.32;;;2.15;;
80334;SDS011;69653;52.674;13.574;2023-04-25T12:14:46;4.72;;;1.50;;
80334;SDS011;69653;52.674;13.574;2023-04-25T12:17:13;6.40;;;1.98;;
80334;SDS011;69653;52.674;13.574;2023-04-25T12:19:39;4.65;;;1.50;;
80334;SDS011;69653;52.674;13.574;2023-04-25T12:22:18;6.15;;;1.67;;
80334;SDS011;69653;52.674;13.574;2023-04-25T12:24:45;7.15;;;1.58;;
80334;SDS011;69653;52.674;13.574;2023-04-25T12:27:10;5.17;;;1.60;;
80334;SDS011;69653;52.674;13.574;2023-04-25T12:29:49;6.88;;;2.25;;
80334;SDS011;69653;52.674;13.574;2023-04-25T12:32:16;5.80;;;1.75;;
80334;SDS011;69653;52.674;13.574;2023-04-25T12:34:41;6.93;;;1.65;;
80334;SDS011;69653;52.674;13.574;2023-04-25T12:37:07;5.43;;;1.23;;
80334;SDS011;69653;52.674;13.574;2023-04-25T12:39:32;7.07;;;1.63;;
80334;SDS011;69653;52.674;13.574;2023-04-25T12:41:57;5.73;;;1.50;;
80334;SDS011;69653;52.674;13.574;2023-04-25T12:44:24;4.88;;;1.38;;
80334;SDS011;69653;52.674;13.574;2023-04-25T12:46:49;5.93;;;1.50;;
80334;SDS011;69653;52.674;13.574;2023-04-25T12:49:15;5.75;;;1.48;;
80334;SDS011;69653;52.674;13.574;2023-04-25T12:51:40;7.20;;;1.97;;
80334;SDS011;69653;52.674;13.574;2023-04-25T12:54:06;5.07;;;1.70;;
80334;SDS011;69653;52.674;13.574;2023-04-25T12:56:33;4.40;;;1.60;;
80334;SDS011;69653;52.674;13.574;2023-04-25T12:58:59;8.18;;;3.00;;
80334;SDS011;69653;52.674;13.574;2023-04-25T13:01:24;6.13;;;2.25;;
80334;SDS011;69653;52.674;13.574;2023-04-25T13:03:51;5.78;;;1.77;;
80334;SDS011;69653;52.674;13.574;2023-04-25T13:06:17;6.03;;;1.50;;
80334;SDS011;69653;52.674;13.574;2023-04-25T13:08:43;4.38;;;1.70;;
80334;SDS011;69653;52.674;13.574;2023-04-25T13:11:09;6.43;;;1.63;;
80334;SDS011;69653;52.674;13.574;2023-04-25T13:13:38;5.28;;;1.67;;
80334;SDS011;69653;52.674;13.574;2023-04-25T13:16:05;6.55;;;1.77;;
80334;SDS011;69653;52.674;13.574;2023-04-25T13:18:30;7.20;;;1.73;;
80334;SDS011;69653;52.674;13.574;2023-04-25T13:20:56;6.23;;;1.70;;
80334;SDS011;69653;52.674;13.574;2023-04-25T13:23:22;7.07;;;1.60;;
80334;SDS011;69653;52.674;13.574;2023-04-25T13:25:50;6.75;;;1.55;;
80334;SDS011;69653;52.674;13.574;2023-04-25T13:28:15;6.20;;;1.57;;
80334;SDS011;69653;52.674;13.574;2023-04-25T13:30:41;5.32;;;2.00;;
80334;SDS011;69653;52.674;13.574;2023-04-25T13:33:06;4.60;;;1.58;;
80334;SDS011;69653;52.674;13.574;2023-04-25T13:35:32;5.03;;;2.15;;
80334;SDS011;69653;52.674;13.574;2023-04-25T13:37:58;5.97;;;2.08;;
80334;SDS011;69653;52.674;13.574;2023-04-25T13:40:24;6.47;;;1.75;;
80334;SDS011;69653;52.674;13.574;2023-04-25T13:42:50;6.28;;;1.50;;
80334;SDS011;69653;52.674;13.574;2023-04-25T13:45:16;7.32;;;1.83;;
80334;SDS011;69653;52.674;13.574;2023-04-25T13:47:41;5.53;;;1.38;;
80334;SDS011;69653;52.674;13.574;2023-04-25T13:50:07;5.07;;;1.47;;
80334;SDS011;69653;52.674;13.574;2023-04-25T13:52:33;9.32;;;1.90;;
80334;SDS011;69653;52.674;13.574;2023-04-25T13:54:58;5.88;;;1.67;;
80334;SDS011;69653;52.674;13.574;2023-04-25T13:57:24;5.78;;;1.60;;
80334;SDS011;69653;52.674;13.574;2023-04-25T13:59:49;3.97;;;1.20;;
80334;SDS011;69653;52.674;13.574;2023-04-25T14:02:15;5.20;;;1.50;;
80334;SDS011;69653;52.674;13.574;2023-04-25T14:04:40;6.70;;;2.20;;
80334;SDS011;69653;52.674;13.574;2023-04-25T14:07:06;8.38;;;1.95;;
80334;SDS011;69653;52.674;13.574;2023-04-25T14:09:31;10.37;;;2.77;;
80334;SDS011;69653;52.674;13.574;2023-04-25T14:11:56;14.77;;;3.80;;
80334;SDS011;69653;52.674;13.574;2023-04-25T14:14:22;7.05;;;2.20;;
80334;SDS011;69653;52.674;13.574;2023-04-25T14:16:48;12.32;;;3.05;;
80334;SDS011;69653;52.674;13.574;2023-04-25T14:19:15;6.03;;;1.80;;
80334;SDS011;69653;52.674;13.574;2023-04-25T14:21:41;8.65;;;1.92;;
80334;SDS011;69653;52.674;13.574;2023-04-25T14:24:06;5.35;;;1.50;;
80334;SDS011;69653;52.674;13.574;2023-04-25T14:26:33;5.80;;;1.75;;
80334;SDS011;69653;52.674;13.574;2023-04-25T14:28:59;5.70;;;1.88;;
80334;SDS011;69653;52.674;13.574;2023-04-25T14:31:24;5.90;;;1.73;;
80334;SDS011;69653;52.674;13.574;2023-04-25T14:33:50;7.37;;;2.10;;
80334;SDS011;69653;52.674;13.574;2023-04-25T14:36:15;6.50;;;1.88;;